Time;durP1;ratioP1;P1;durP2;ratioP2;P2;SDS_P1;SDS_P2;PMS_P1;PMS_P2;Temp;Humidity;BMP_temperature;BMP_pressure;BME280_temperature;BME280_humidity;BME280_pressure;Samples;Min_cycle;Max_cycle;Signal;HPM_P1;HPM_P2
2024/01/21 00:00:11;;;;;;;12.23;2.20;;;9.10;83.20;;;;;;7404666;19;20418;-77
2024/01/21 00:02:37;;;;;;;8.13;1.60;;;9.10;83.60;;;;;;7396657;19;19915;-78
2024/01/21 00:05:03;;;;;;;11.05;2.08;;;9.10;83.50;;;;;;7393254;19;19939;-76
2024/01/21 00:07:29;;;;;;;13.77;2.00;;;9.20;84.00;;;;;;7397096;19;19923;-75
2024/01/21 00:09:56;;;;;;;11.02;1.65;;;9.10;84.30;;;;;;7401434;19;20038;-76
2024/01/21 00:12:21;;;;;;;6.93;1.50;;;9.20;85.10;;;;;;7408298;19;19926;-76
2024/01/21 00:14:47;;;;;;;9.27;1.88;;;9.20;84.50;;;;;;7401874;19;19922;-76
2024/01/21 00:17:13;;;;;;;8.77;1.60;;;9.20;84.60;;;;;;7402758;19;19940;-78
2024/01/21 00:19:39;;;;;;;11.07;1.90;;;9.20;84.40;;;;;;7405730;19;19942;-77
2024/01/21 00:22:05;;;;;;;12.35;1.92;;;9.30;84.40;;;;;;7406428;19;20315;-74
2024/01/21 00:24:31;;;;;;;12.40;2.25;;;9.40;82.90;;;;;;7397102;19;19936;-75
2024/01/21 00:26:57;;;;;;;8.68;1.67;;;9.40;83.30;;;;;;7405879;19;19922;-75
2024/01/21 00:29:24;;;;;;;12.63;1.73;;;9.50;82.90;;;;;;7394141;19;19931;-75
2024/01/21 00:31:50;;;;;;;11.73;1.98;;;9.50;82.00;;;;;;7405010;19;19929;-75
2024/01/21 00:34:15;;;;;;;13.65;2.75;;;9.50;81.60;;;;;;7399210;19;20602;-75
2024/01/21 00:36:41;;;;;;;8.90;2.10;;;9.50;81.70;;;;;;7400845;19;20343;-75
2024/01/21 00:39:07;;;;;;;11.85;2.60;;;9.60;81.60;;;;;;7400896;19;19929;-74
2024/01/21 00:41:33;;;;;;;9.95;2.00;;;9.70;80.60;;;;;;7401769;19;19914;-73
2024/01/21 00:43:58;;;;;;;8.93;2.92;;;9.70;80.10;;;;;;7403520;19;20780;-74
2024/01/21 00:46:24;;;;;;;9.20;1.65;;;9.80;79.10;;;;;;7397754;19;19915;-74
2024/01/21 00:48:50;;;;;;;10.95;1.80;;;9.80;78.70;;;;;;7403388;19;19918;-74
2024/01/21 00:51:16;;;;;;;9.80;1.70;;;9.90;78.10;;;;;;7402470;19;19952;-74
2024/01/21 00:53:41;;;;;;;9.27;1.70;;;9.90;77.40;;;;;;7402950;19;19922;-74
2024/01/21 00:56:07;;;;;;;10.55;2.22;;;9.90;77.40;;;;;;7403515;19;19922;-72
2024/01/21 00:58:33;;;;;;;13.80;1.95;;;9.90;77.20;;;;;;7404325;19;19914;-74
2024/01/21 01:00:59;;;;;;;10.70;1.92;;;9.80;77.00;;;;;;7405751;19;19955;-74
2024/01/21 01:03:24;;;;;;;9.35;1.77;;;9.90;77.10;;;;;;7401613;19;19911;-73
2024/01/21 01:05:50;;;;;;;9.10;2.00;;;9.80;78.10;;;;;;7405662;19;19926;-74
2024/01/21 01:08:18;;;;;;;10.88;2.10;;;9.80;78.10;;;;;;7404333;19;19911;-75
2024/01/21 01:10:44;;;;;;;12.00;1.77;;;9.70;78.80;;;;;;7403199;19;19932;-74
2024/01/21 01:13:10;;;;;;;9.43;1.90;;;9.60;79.80;;;;;;7404085;19;20311;-74
2024/01/21 01:15:37;;;;;;;11.25;2.08;;;9.50;79.80;;;;;;7403974;19;19950;-74
2024/01/21 01:18:04;;;;;;;6.38;1.67;;;9.40;80.70;;;;;;7399819;19;19922;-73
2024/01/21 01:20:31;;;;;;;13.32;1.95;;;9.40;81.50;;;;;;7404043;19;19952;-74
2024/01/21 01:22:58;;;;;;;15.05;1.90;;;9.30;82.40;;;;;;7402277;19;19922;-74
2024/01/21 01:25:26;;;;;;;9.98;2.13;;;9.30;82.70;;;;;;7400910;19;19930;-73
2024/01/21 01:27:52;;;;;;;12.95;2.00;;;9.20;84.10;;;;;;7402453;19;20853;-73
2024/01/21 01:30:18;;;;;;;11.07;1.80;;;9.20;84.40;;;;;;7399788;19;19958;-74
2024/01/21 01:32:44;;;;;;;15.98;3.13;;;9.10;84.50;;;;;;7400857;19;20660;-74
2024/01/21 01:35:10;;;;;;;11.02;1.80;;;9.10;84.50;;;;;;7401616;19;19922;-74
2024/01/21 01:37:35;;;;;;;10.25;1.70;;;9.10;85.10;;;;;;7402594;19;20010;-74
2024/01/21 01:40:01;;;;;;;11.75;2.05;;;9.10;84.70;;;;;;7400848;19;19919;-73
2024/01/21 01:42:28;;;;;;;11.90;1.90;;;9.10;84.70;;;;;;7399467;19;19922;-74
2024/01/21 01:44:53;;;;;;;10.35;1.73;;;9.10;84.40;;;;;;7399040;19;19929;-74
2024/01/21 01:47:19;;;;;;;13.65;2.20;;;9.00;84.80;;;;;;7396554;19;19986;-74
2024/01/21 01:49:45;;;;;;;8.98;1.95;;;9.00;84.70;;;;;;7399934;19;19977;-73
2024/01/21 01:52:13;;;;;;;11.40;2.20;;;9.00;85.10;;;;;;7398803;19;19925;-73
2024/01/21 01:54:40;;;;;;;8.60;2.15;;;8.90;85.90;;;;;;7402273;19;19923;-75
2024/01/21 01:57:07;;;;;;;9.93;2.00;;;8.80;86.40;;;;;;7398740;19;19982;-74
2024/01/21 01:59:34;;;;;;;10.18;2.00;;;8.80;86.80;;;;;;7400462;19;19915;-74
2024/01/21 02:02:01;;;;;;;20.45;3.28;;;8.80;86.40;;;;;;7402597;19;19914;-73
2024/01/21 02:04:26;;;;;;;13.68;2.60;;;8.70;86.80;;;;;;7395633;19;19915;-73
2024/01/21 02:06:52;;;;;;;7.20;1.77;;;8.70;86.70;;;;;;7398479;19;19922;-74
2024/01/21 02:09:18;;;;;;;10.35;2.22;;;8.70;86.50;;;;;;7399162;19;19978;-74
2024/01/21 02:11:44;;;;;;;11.82;2.00;;;8.80;85.50;;;;;;7401175;19;19922;-73
2024/01/21 02:14:13;;;;;;;14.57;2.22;;;8.80;85.10;;;;;;7398394;19;20457;-75
2024/01/21 02:16:39;;;;;;;13.77;2.55;;;8.80;84.00;;;;;;7400995;19;19926;-74
2024/01/21 02:19:17;;;;;;;11.90;1.80;;;8.90;83.40;;;;;;7397899;19;19922;-75
2024/01/21 02:21:43;;;;;;;15.63;2.75;;;8.90;81.90;;;;;;7401697;19;20343;-74
2024/01/21 02:24:09;;;;;;;9.30;1.90;;;9.00;78.30;;;;;;7397564;19;19923;-74
2024/01/21 02:26:35;;;;;;;7.68;1.58;;;9.00;78.40;;;;;;7403681;19;19919;-73
2024/01/21 02:29:00;;;;;;;9.95;1.92;;;9.00;76.10;;;;;;7408747;19;19922;-73
2024/01/21 02:31:26;;;;;;;13.57;2.17;;;9.00;74.40;;;;;;7408006;19;19915;-73
2024/01/21 02:33:52;;;;;;;14.20;2.25;;;9.00;73.80;;;;;;7406235;19;20440;-74
2024/01/21 02:36:18;;;;;;;9.00;1.58;;;9.10;72.40;;;;;;7383671;19;19918;-74
2024/01/21 02:38:44;;;;;;;11.63;1.80;;;9.20;70.30;;;;;;7405441;19;19941;-74
2024/01/21 02:41:10;;;;;;;9.85;1.80;;;9.20;69.60;;;;;;7406812;19;19929;-73
2024/01/21 02:43:37;;;;;;;10.02;2.05;;;9.30;68.20;;;;;;7405738;19;19995;-74
2024/01/21 02:46:02;;;;;;;10.63;2.00;;;9.30;68.00;;;;;;7403397;19;19918;-73
2024/01/21 02:48:28;;;;;;;8.05;1.33;;;9.30;66.80;;;;;;7406329;19;19915;-72
2024/01/21 02:50:54;;;;;;;9.00;1.30;;;9.30;66.20;;;;;;7406020;19;19994;-74
2024/01/21 02:53:20;;;;;;;8.18;1.30;;;9.40;66.20;;;;;;7405145;19;19915;-73
2024/01/21 02:55:45;;;;;;;10.10;1.70;;;9.30;66.20;;;;;;7405616;19;19919;-73
2024/01/21 02:58:12;;;;;;;11.40;1.80;;;9.40;66.20;;;;;;7382944;19;19918;-74
2024/01/21 03:00:37;;;;;;;15.18;2.28;;;9.30;66.80;;;;;;7403862;19;19926;-74
2024/01/21 03:03:03;;;;;;;7.25;1.40;;;9.40;67.20;;;;;;7403085;19;19929;-75
2024/01/21 03:05:29;;;;;;;11.45;1.77;;;9.40;67.50;;;;;;7404764;19;19974;-75
2024/01/21 03:07:55;;;;;;;12.70;1.98;;;9.30;67.60;;;;;;7405392;19;19943;-74
2024/01/21 03:10:20;;;;;;;10.25;2.17;;;9.30;67.90;;;;;;7404470;19;19910;-75
2024/01/21 03:12:46;;;;;;;14.30;2.42;;;9.30;68.00;;;;;;7406162;19;20676;-73
2024/01/21 03:15:14;;;;;;;11.73;1.85;;;9.30;68.00;;;;;;7403619;19;20265;-73
2024/01/21 03:17:39;;;;;;;8.32;1.65;;;9.30;68.30;;;;;;7406975;19;19929;-73
2024/01/21 03:20:06;;;;;;;7.72;1.38;;;9.30;67.60;;;;;;7404679;19;19919;-74
2024/01/21 03:22:32;;;;;;;10.18;1.73;;;9.30;68.50;;;;;;7405531;19;20266;-74
2024/01/21 03:24:58;;;;;;;13.15;2.13;;;9.20;68.50;;;;;;7401303;19;19922;-74
2024/01/21 03:27:24;;;;;;;11.40;1.88;;;9.20;69.40;;;;;;7402626;19;19995;-74
2024/01/21 03:29:50;;;;;;;14.75;2.20;;;9.20;70.60;;;;;;7405228;19;19969;-73
2024/01/21 03:32:16;;;;;;;10.35;1.73;;;9.10;70.50;;;;;;7402609;19;19922;-74
2024/01/21 03:34:43;;;;;;;7.65;1.75;;;9.00;72.00;;;;;;7405722;19;19918;-74
2024/01/21 03:37:09;;;;;;;10.98;1.70;;;8.90;73.00;;;;;;7400585;19;20316;-74
2024/01/21 03:39:36;;;;;;;13.52;2.92;;;8.90;74.00;;;;;;7406051;19;20334;-74
2024/01/21 03:42:02;;;;;;;7.95;1.70;;;8.80;74.50;;;;;;7404735;19;19915;-74
2024/01/21 03:44:28;;;;;;;11.70;2.17;;;8.80;74.50;;;;;;7402725;19;19952;-73
2024/01/21 03:46:54;;;;;;;11.00;1.80;;;8.80;75.00;;;;;;7405707;19;19914;-73
2024/01/21 03:49:20;;;;;;;9.43;1.52;;;8.70;75.60;;;;;;7403050;19;19921;-74
2024/01/21 03:51:45;;;;;;;6.85;1.55;;;8.70;75.50;;;;;;7403538;19;19911;-74
2024/01/21 03:54:11;;;;;;;11.23;2.03;;;8.60;75.30;;;;;;7405473;19;19914;-73
2024/01/21 03:56:37;;;;;;;8.02;1.48;;;8.60;76.10;;;;;;7406748;19;19953;-73
2024/01/21 03:59:03;;;;;;;16.38;2.20;;;8.50;76.40;;;;;;7403405;19;20266;-73
2024/01/21 04:01:28;;;;;;;6.32;1.98;;;8.50;77.80;;;;;;7403929;19;20373;-73
2024/01/21 04:03:54;;;;;;;7.28;1.58;;;8.40;77.90;;;;;;7401721;19;19925;-74
2024/01/21 04:06:20;;;;;;;9.18;2.00;;;8.40;79.20;;;;;;7404074;19;19911;-75
2024/01/21 04:08:46;;;;;;;7.65;1.48;;;8.50;79.80;;;;;;7405823;19;20239;-74
2024/01/21 04:11:11;;;;;;;11.00;1.67;;;8.50;79.80;;;;;;7404372;19;20379;-74
2024/01/21 04:13:37;;;;;;;10.75;1.30;;;8.50;79.80;;;;;;7402347;19;19923;-74
2024/01/21 04:16:03;;;;;;;9.38;1.60;;;8.60;80.20;;;;;;7403271;19;19998;-74
2024/01/21 04:18:29;;;;;;;10.20;1.40;;;8.70;79.90;;;;;;7405413;19;19955;-74
2024/01/21 04:20:55;;;;;;;10.05;1.83;;;8.70;79.50;;;;;;7405151;19;19947;-74
2024/01/21 04:23:21;;;;;;;9.40;1.67;;;8.80;80.00;;;;;;7402477;19;19919;-73
2024/01/21 04:25:47;;;;;;;11.68;1.95;;;8.70;79.20;;;;;;7403447;19;19931;-74
2024/01/21 04:28:13;;;;;;;12.32;1.88;;;8.70;79.70;;;;;;7402425;19;19950;-75
2024/01/21 04:30:39;;;;;;;12.95;1.70;;;8.60;79.80;;;;;;7382451;19;19914;-74
2024/01/21 04:33:06;;;;;;;15.80;1.83;;;8.60;80.70;;;;;;7403229;19;19945;-73
2024/01/21 04:35:32;;;;;;;12.52;1.60;;;8.60;82.00;;;;;;7404911;19;19925;-75
2024/01/21 04:37:58;;;;;;;10.52;2.15;;;8.50;82.40;;;;;;7403722;19;19928;-75
2024/01/21 04:40:23;;;;;;;11.65;1.67;;;8.50;82.30;;;;;;7401201;19;19915;-73
2024/01/21 04:42:49;;;;;;;15.95;2.00;;;8.40;81.80;;;;;;7402715;19;20387;-73
2024/01/21 04:45:16;;;;;;;12.32;2.30;;;8.40;83.30;;;;;;7401573;19;20521;-75
2024/01/21 04:47:42;;;;;;;12.65;1.83;;;8.30;84.70;;;;;;7403699;19;19935;-73
2024/01/21 04:50:09;;;;;;;6.78;1.30;;;8.20;85.50;;;;;;7402170;19;20553;-73
2024/01/21 04:52:36;;;;;;;7.95;1.60;;;8.10;85.30;;;;;;7404672;19;19934;-74
2024/01/21 04:55:02;;;;;;;10.20;2.00;;;8.10;86.60;;;;;;7404942;19;19966;-74
2024/01/21 04:57:28;;;;;;;14.13;1.85;;;8.10;87.10;;;;;;7403768;19;19930;-73
2024/01/21 04:59:53;;;;;;;6.63;1.25;;;8.00;87.30;;;;;;7401706;19;20015;-75
2024/01/21 05:02:19;;;;;;;9.32;1.50;;;8.10;88.60;;;;;;7400593;19;19923;-74
2024/01/21 05:04:45;;;;;;;9.45;1.80;;;8.10;89.30;;;;;;7402070;19;19921;-73
2024/01/21 05:07:11;;;;;;;12.38;1.33;;;8.00;89.60;;;;;;7401471;19;19919;-73
2024/01/21 05:09:37;;;;;;;9.13;2.10;;;8.00;89.10;;;;;;7403058;19;19942;-74
2024/01/21 05:12:03;;;;;;;10.30;1.45;;;8.00;89.10;;;;;;7403003;19;19961;-73
2024/01/21 05:14:28;;;;;;;8.25;2.22;;;8.10;89.30;;;;;;7403785;19;19939;-75
2024/01/21 05:16:54;;;;;;;12.32;1.73;;;8.10;88.80;;;;;;7407177;19;19926;-74
2024/01/21 05:19:20;;;;;;;10.20;1.98;;;8.10;88.20;;;;;;7401572;19;19986;-73
2024/01/21 05:21:45;;;;;;;8.48;1.90;;;8.20;89.30;;;;;;7406881;19;20409;-74
2024/01/21 05:24:11;;;;;;;10.90;1.40;;;8.20;87.80;;;;;;7401238;19;19935;-73
2024/01/21 05:26:44;;;;;;;9.93;1.85;;;8.20;88.10;;;;;;7403068;19;19929;-74
2024/01/21 05:29:10;;;;;;;10.13;1.90;;;8.20;88.10;;;;;;7400312;19;19915;-73
2024/01/21 05:31:36;;;;;;;15.25;1.75;;;8.20;88.40;;;;;;7401522;19;20019;-74
2024/01/21 05:34:01;;;;;;;8.85;1.60;;;8.20;88.40;;;;;;7401947;19;19922;-74
2024/01/21 05:36:27;;;;;;;9.63;1.60;;;8.30;88.30;;;;;;7402719;19;19982;-74
2024/01/21 05:38:53;;;;;;;14.57;2.05;;;8.30;88.10;;;;;;7401926;19;20051;-74
2024/01/21 05:41:19;;;;;;;9.77;1.80;;;8.20;88.40;;;;;;7400863;19;19922;-74
2024/01/21 05:43:45;;;;;;;13.23;2.20;;;8.20;89.00;;;;;;7398614;19;20262;-74
2024/01/21 05:46:11;;;;;;;21.33;2.38;;;8.10;89.40;;;;;;7400392;19;20625;-74
2024/01/21 05:48:37;;;;;;;9.43;1.58;;;8.10;90.00;;;;;;7402127;19;19914;-74
2024/01/21 05:51:05;;;;;;;8.75;1.77;;;8.10;90.40;;;;;;7399871;19;20380;-74
2024/01/21 05:53:31;;;;;;;7.30;1.70;;;8.10;90.80;;;;;;7400903;19;19978;-74
2024/01/21 05:55:56;;;;;;;11.65;2.35;;;8.20;90.30;;;;;;7401268;19;20339;-74
2024/01/21 05:58:22;;;;;;;13.93;1.60;;;8.40;90.00;;;;;;7398293;19;19921;-74
2024/01/21 06:00:48;;;;;;;15.23;1.50;;;8.30;89.60;;;;;;7401404;19;20021;-74
2024/01/21 06:03:14;;;;;;;10.68;1.70;;;8.30;90.00;;;;;;7407340;19;19918;-75
2024/01/21 06:05:40;;;;;;;11.10;1.80;;;8.40;89.90;;;;;;7410222;19;19926;-73
2024/01/21 06:08:06;;;;;;;12.93;1.58;;;8.30;89.60;;;;;;7405939;19;20387;-73
2024/01/21 06:10:31;;;;;;;11.25;1.52;;;8.30;89.80;;;;;;7409414;19;19952;-73
2024/01/21 06:12:57;;;;;;;8.00;1.60;;;8.40;90.50;;;;;;7407029;19;19914;-73
2024/01/21 06:15:23;;;;;;;9.05;2.00;;;8.40;90.30;;;;;;7406796;19;19927;-75
2024/01/21 06:17:51;;;;;;;16.95;2.05;;;8.50;90.50;;;;;;7407912;19;19915;-74
2024/01/21 06:20:19;;;;;;;10.80;1.60;;;8.40;90.60;;;;;;7407608;19;19936;-73
2024/01/21 06:22:46;;;;;;;11.88;1.67;;;8.40;90.20;;;;;;7407830;19;19922;-74
2024/01/21 06:25:12;;;;;;;9.55;1.50;;;8.50;90.80;;;;;;7402775;19;19919;-73
2024/01/21 06:27:38;;;;;;;12.63;2.08;;;8.40;90.40;;;;;;7401549;19;19918;-73
2024/01/21 06:30:14;;;;;;;8.80;1.70;;;8.40;90.90;;;;;;7403760;19;20254;-73
2024/01/21 06:32:41;;;;;;;10.13;1.90;;;8.40;90.50;;;;;;7406509;19;19922;-72
2024/01/21 06:35:07;;;;;;;17.13;1.98;;;8.30;91.10;;;;;;7403558;19;19918;-73
2024/01/21 06:37:34;;;;;;;11.40;1.60;;;8.40;91.50;;;;;;7401800;19;20391;-75
2024/01/21 06:40:00;;;;;;;9.85;2.85;;;8.50;91.00;;;;;;7405374;19;19930;-73
2024/01/21 06:42:26;;;;;;;9.55;1.52;;;8.60;91.30;;;;;;7401836;19;19918;-72
2024/01/21 06:44:52;;;;;;;11.13;2.00;;;8.60;90.90;;;;;;7406809;19;19915;-73
2024/01/21 06:47:18;;;;;;;7.57;1.60;;;8.70;90.50;;;;;;7382847;19;19925;-74
2024/01/21 06:49:44;;;;;;;11.13;1.52;;;8.80;90.40;;;;;;7404645;19;19941;-73
2024/01/21 06:52:10;;;;;;;9.43;2.15;;;8.90;89.50;;;;;;7403740;19;19918;-72
2024/01/21 06:54:36;;;;;;;9.32;1.30;;;9.10;87.10;;;;;;7403477;19;19911;-73
2024/01/21 06:57:02;;;;;;;9.95;2.33;;;9.20;84.80;;;;;;7399752;19;19929;-72
2024/01/21 06:59:28;;;;;;;12.65;1.73;;;9.30;83.10;;;;;;7403350;19;19948;-72
2024/01/21 07:01:54;;;;;;;10.18;1.60;;;9.30;82.90;;;;;;7405423;19;19911;-73
2024/01/21 07:04:20;;;;;;;9.77;2.30;;;9.40;82.40;;;;;;7404512;19;19915;-73
2024/01/21 07:06:47;;;;;;;8.15;1.75;;;9.40;82.10;;;;;;7405425;19;19923;-73
2024/01/21 07:09:13;;;;;;;10.50;2.10;;;9.40;81.60;;;;;;7404813;19;20330;-72
2024/01/21 07:11:43;;;;;;;11.50;1.73;;;9.50;81.50;;;;;;7402111;19;20390;-72
2024/01/21 07:14:08;;;;;;;8.40;1.52;;;9.50;80.90;;;;;;7404025;19;19949;-73
2024/01/21 07:16:36;;;;;;;14.75;1.70;;;9.50;80.00;;;;;;7405200;19;19922;-72
2024/01/21 07:19:03;;;;;;;;;;;9.50;79.60;;;;;;7405376;19;19922;-73
2024/01/21 07:21:30;;;;;;;12.77;1.80;;;9.60;79.10;;;;;;7406565;19;19910;-72
2024/01/21 07:23:56;;;;;;;14.40;2.75;;;9.60;79.20;;;;;;7400239;19;19991;-73
2024/01/21 07:26:23;;;;;;;8.45;1.83;;;9.50;79.70;;;;;;7401761;19;20364;-73
2024/01/21 07:28:49;;;;;;;16.10;2.60;;;9.50;80.40;;;;;;7407459;19;19927;-74
2024/01/21 07:31:15;;;;;;;10.07;1.85;;;9.50;81.40;;;;;;7404676;19;20259;-73
2024/01/21 07:33:41;;;;;;;10.35;1.98;;;9.40;82.10;;;;;;7404850;19;19914;-73
2024/01/21 07:36:06;;;;;;;9.98;1.60;;;9.30;82.60;;;;;;7404392;19;19910;-73
2024/01/21 07:38:32;;;;;;;14.32;1.67;;;9.30;83.30;;;;;;7404952;19;19986;-74
2024/01/21 07:40:58;;;;;;;11.07;1.63;;;9.30;83.80;;;;;;7405998;19;19918;-74
2024/01/21 07:43:26;;;;;;;12.38;2.13;;;9.40;83.80;;;;;;7403076;19;20235;-73
2024/01/21 07:45:51;;;;;;;11.90;2.22;;;9.50;83.20;;;;;;7403812;19;20365;-73
2024/01/21 07:48:18;;;;;;;12.90;2.97;;;9.60;82.40;;;;;;7401588;19;19982;-74
2024/01/21 07:50:44;;;;;;;8.48;1.80;;;9.70;81.70;;;;;;7403236;19;19935;-73
2024/01/21 07:53:10;;;;;;;12.93;2.20;;;9.70;80.20;;;;;;7404057;19;20545;-74
2024/01/21 07:55:37;;;;;;;10.63;1.83;;;9.80;79.80;;;;;;7406348;19;19922;-74
2024/01/21 07:58:03;;;;;;;10.10;2.42;;;9.90;78.90;;;;;;7404165;19;19981;-73
2024/01/21 08:00:29;;;;;;;8.35;1.70;;;9.90;78.50;;;;;;7404686;19;19926;-73
2024/01/21 08:02:55;;;;;;;8.20;1.60;;;10.00;77.10;;;;;;7406443;19;19947;-74
2024/01/21 08:05:21;;;;;;;10.07;1.90;;;10.10;76.20;;;;;;7401566;19;19930;-73
2024/01/21 08:07:47;;;;;;;9.23;1.58;;;10.10;75.60;;;;;;7404153;19;19951;-72
2024/01/21 08:10:13;;;;;;;8.38;1.95;;;10.10;74.20;;;;;;7400538;19;19915;-72
2024/01/21 08:12:39;;;;;;;7.50;1.58;;;10.20;73.50;;;;;;7382145;19;20007;-73
2024/01/21 08:15:06;;;;;;;15.02;2.08;;;10.20;72.60;;;;;;7400825;19;20006;-73
2024/01/21 08:17:32;;;;;;;11.57;2.10;;;10.20;71.10;;;;;;7402646;19;19918;-72
2024/01/21 08:19:58;;;;;;;9.27;1.83;;;10.20;70.60;;;;;;7401556;19;19985;-73
2024/01/21 08:26:08;;;;;;;8.15;1.42;;;10.40;70.50;;;;;;7339062;19;20587;-74
2024/01/21 08:28:34;;;;;;;4.30;1.00;;;10.40;69.40;;;;;;7399176;19;19911;-74
2024/01/21 08:31:03;;;;;;;9.80;1.85;;;10.50;67.00;;;;;;7402702;19;19922;-74
2024/01/21 08:33:29;;;;;;;13.10;2.10;;;10.50;68.00;;;;;;7402764;19;19922;-73
2024/01/21 08:35:55;;;;;;;4.07;1.00;;;10.60;67.70;;;;;;7403373;19;19929;-74
2024/01/21 08:38:21;;;;;;;8.25;1.55;;;10.70;66.30;;;;;;7403456;19;19919;-74
2024/01/21 08:40:46;;;;;;;7.90;1.40;;;10.70;65.40;;;;;;7401829;19;19921;-74
2024/01/21 08:43:12;;;;;;;13.35;2.10;;;10.70;65.90;;;;;;7402731;19;19922;-73
2024/01/21 08:45:39;;;;;;;10.23;2.08;;;10.70;65.50;;;;;;7403859;19;19910;-74
2024/01/21 08:48:05;;;;;;;8.18;1.42;;;10.70;65.30;;;;;;7405473;19;19955;-73
2024/01/21 08:50:31;;;;;;;11.30;1.85;;;10.80;64.60;;;;;;7403225;19;19926;-73
2024/01/21 08:52:57;;;;;;;10.52;1.40;;;10.80;64.60;;;;;;7405358;19;19922;-73
2024/01/21 08:55:23;;;;;;;9.00;1.58;;;10.90;64.40;;;;;;7386070;19;19939;-74
2024/01/21 08:57:48;;;;;;;11.50;2.22;;;10.90;64.10;;;;;;7402020;19;19930;-74
2024/01/21 09:00:14;;;;;;;9.48;1.60;;;11.40;63.50;;;;;;7402895;19;19915;-73
2024/01/21 09:02:40;;;;;;;8.88;1.92;;;11.30;60.90;;;;;;7402863;19;19978;-73
2024/01/21 09:05:06;;;;;;;10.35;1.80;;;11.30;60.20;;;;;;7400567;19;19952;-72
2024/01/21 09:07:32;;;;;;;10.52;2.22;;;11.20;61.10;;;;;;7401558;19;19932;-73
2024/01/21 09:09:58;;;;;;;10.27;1.70;;;11.30;60.20;;;;;;7402185;19;19927;-73
2024/01/21 09:12:23;;;;;;;11.23;2.03;;;11.50;58.90;;;;;;7401699;19;20021;-74
2024/01/21 09:14:49;;;;;;;16.05;2.67;;;11.60;56.30;;;;;;7399629;19;19930;-75
2024/01/21 09:17:15;;;;;;;9.93;2.50;;;11.80;55.70;;;;;;7399760;19;19925;-73
2024/01/21 09:19:43;;;;;;;12.23;2.42;;;11.90;54.80;;;;;;7373636;19;19919;-74
2024/01/21 09:22:08;;;;;;;10.23;1.67;;;11.90;55.10;;;;;;7401789;19;19923;-73
2024/01/21 09:24:34;;;;;;;11.10;2.20;;;12.20;53.70;;;;;;7402327;19;20492;-73
2024/01/21 09:27:00;;;;;;;8.93;1.83;;;12.60;51.60;;;;;;7401116;19;19958;-74
2024/01/21 09:29:26;;;;;;;10.10;2.10;;;12.70;51.10;;;;;;7402007;19;20255;-74
2024/01/21 09:31:56;;;;;;;11.88;1.65;;;12.80;48.60;;;;;;7400735;19;20350;-74
2024/01/21 09:34:22;;;;;;;11.68;1.95;;;12.90;46.60;;;;;;7397327;19;19938;-74
2024/01/21 09:36:48;;;;;;;9.88;1.83;;;12.80;47.00;;;;;;7398739;19;19918;-72
2024/01/21 09:39:14;;;;;;;10.52;1.60;;;13.10;46.80;;;;;;7378484;19;19929;-73
2024/01/21 09:41:49;;;;;;;11.10;1.90;;;12.70;46.20;;;;;;7394639;19;19926;-73
2024/01/21 09:44:18;;;;;;;8.52;2.03;;;12.70;48.10;;;;;;7400757;19;19917;-73
2024/01/21 09:47:06;;;;;;;;;;;12.70;49.40;;;;;;7402849;19;19911;-73
2024/01/21 09:49:33;;;;;;;8.80;1.73;;;12.90;49.00;;;;;;7400634;19;19919;-73
2024/01/21 09:52:02;;;;;;;9.82;2.05;;;12.80;47.70;;;;;;7399966;19;19925;-73
2024/01/21 09:54:28;;;;;;;11.20;2.45;;;12.90;48.70;;;;;;7402059;19;19987;-73
2024/01/21 09:56:54;;;;;;;8.05;2.03;;;12.90;47.30;;;;;;7400222;19;20276;-73
2024/01/21 09:59:21;;;;;;;;;;;12.70;47.40;;;;;;7402588;19;20386;-74
2024/01/21 10:01:50;;;;;;;10.73;1.98;;;13.20;46.50;;;;;;7402235;19;19929;-75
2024/01/21 10:04:15;;;;;;;10.73;2.28;;;13.70;43.60;;;;;;7397599;19;20468;-74
2024/01/21 10:06:41;;;;;;;7.05;2.10;;;13.90;42.30;;;;;;7399272;19;19919;-75
2024/01/21 10:09:25;;;;;;;13.63;2.20;;;13.90;40.00;;;;;;7354304;19;19919;-75
2024/01/21 10:11:59;;;;;;;10.43;2.25;;;14.10;39.70;;;;;;7394358;19;19915;-74
2024/01/21 10:14:27;;;;;;;11.27;2.33;;;13.90;37.50;;;;;;7396579;19;19934;-73
2024/01/21 10:16:55;;;;;;;9.30;1.95;;;14.10;38.20;;;;;;7403609;19;19930;-74
2024/01/21 10:19:31;;;;;;;10.35;2.15;;;14.40;37.30;;;;;;7398011;19;19922;-74
2024/01/21 10:22:18;;;;;;;8.98;2.38;;;13.90;35.80;;;;;;7399244;19;19926;-74
2024/01/21 10:24:48;;;;;;;9.60;2.13;;;14.70;34.50;;;;;;7402574;19;20286;-75
2024/01/21 10:27:15;;;;;;;11.18;2.55;;;14.40;36.00;;;;;;7400313;19;19921;-73
2024/01/21 10:29:43;;;;;;;8.25;2.33;;;14.50;37.70;;;;;;7397775;19;19922;-74
2024/01/21 10:32:17;;;;;;;10.30;1.98;;;14.70;35.80;;;;;;7391998;19;19935;-73
2024/01/21 10:34:45;;;;;;;10.45;2.35;;;14.40;36.40;;;;;;7395222;19;19932;-73
2024/01/21 10:37:17;;;;;;;10.75;2.28;;;13.80;39.10;;;;;;7389063;19;19927;-73
2024/01/21 10:39:47;;;;;;;12.23;2.60;;;14.40;37.90;;;;;;7395569;19;19922;-74
2024/01/21 10:42:14;;;;;;;10.30;2.03;;;14.30;36.90;;;;;;7397101;19;19921;-75
2024/01/21 10:44:40;;;;;;;10.73;2.97;;;14.60;37.60;;;;;;7396103;19;19915;-75
2024/01/21 10:47:11;;;;;;;8.38;2.50;;;15.20;33.90;;;;;;7400677;19;19922;-73
2024/01/21 10:49:39;;;;;;;9.55;2.47;;;15.40;30.60;;;;;;7408813;19;19934;-74
2024/01/21 10:52:08;;;;;;;10.20;2.28;;;15.30;32.80;;;;;;7403123;19;19906;-74
2024/01/21 10:54:37;;;;;;;10.32;3.10;;;15.30;31.40;;;;;;7407487;19;19922;-75
2024/01/21 10:57:03;;;;;;;10.80;2.38;;;15.30;31.30;;;;;;7406869;19;20420;-76
2024/01/21 10:59:31;;;;;;;10.85;2.70;;;15.20;30.00;;;;;;7391350;19;19994;-75
2024/01/21 11:01:58;;;;;;;10.07;3.10;;;15.70;30.80;;;;;;7404077;19;19922;-75
2024/01/21 11:04:25;;;;;;;11.20;2.72;;;16.00;30.40;;;;;;7406979;19;20374;-74
2024/01/21 11:06:54;;;;;;;15.25;2.50;;;16.00;27.90;;;;;;7403321;19;20580;-76
2024/01/21 11:09:23;;;;;;;9.77;2.33;;;16.30;28.30;;;;;;7404640;19;20289;-76
2024/01/21 11:11:58;;;;;;;10.32;3.03;;;16.00;28.20;;;;;;7407048;19;19919;-78
2024/01/21 11:14:43;;;;;;;11.25;3.35;;;16.30;28.80;;;;;;7409880;19;19925;-76
2024/01/21 11:17:10;;;;;;;7.60;2.60;;;16.60;27.60;;;;;;7399808;19;19918;-74
2024/01/21 11:19:53;;;;;;;10.13;2.60;;;15.90;27.60;;;;;;7404397;19;19931;-76
2024/01/21 11:22:23;;;;;;;10.63;3.17;;;16.40;27.10;;;;;;7391876;19;20662;-75
2024/01/21 11:24:55;;;;;;;10.63;2.95;;;16.90;26.80;;;;;;7407089;19;19910;-75
2024/01/21 11:27:22;;;;;;;8.80;2.70;;;16.80;25.60;;;;;;7402074;19;19943;-75
2024/01/21 11:29:55;;;;;;;11.10;2.35;;;16.70;27.10;;;;;;7413760;19;19924;-75
2024/01/21 11:32:31;;;;;;;8.43;2.83;;;16.40;25.50;;;;;;7407366;19;19989;-74
2024/01/21 11:35:14;;;;;;;8.65;3.03;;;17.00;24.80;;;;;;7406864;19;20319;-74
2024/01/21 11:37:42;;;;;;;8.23;3.08;;;15.90;28.40;;;;;;7405891;19;19918;-76
2024/01/21 11:40:09;;;;;;;11.82;3.13;;;16.80;26.20;;;;;;7404857;19;19922;-73
2024/01/21 11:42:36;;;;;;;9.80;2.78;;;16.90;24.80;;;;;;7406038;19;19919;-75
2024/01/21 11:45:05;;;;;;;8.95;2.72;;;15.30;28.00;;;;;;7401297;19;19933;-75
2024/01/21 11:47:32;;;;;;;9.10;2.60;;;16.20;28.40;;;;;;7404362;19;20001;-74
2024/01/21 11:49:59;;;;;;;10.20;3.00;;;16.70;24.30;;;;;;7407893;19;20358;-74
2024/01/21 11:52:24;;;;;;;11.95;3.58;;;16.60;23.70;;;;;;7406860;19;19918;-74
2024/01/21 11:54:51;;;;;;;10.77;3.25;;;16.50;22.30;;;;;;7407407;19;19925;-74
2024/01/21 11:57:19;;;;;;;9.73;2.85;;;17.70;20.90;;;;;;7402421;19;19922;-74
2024/01/21 11:59:45;;;;;;;10.20;3.42;;;18.20;18.60;;;;;;7404896;19;19914;-74
2024/01/21 12:02:11;;;;;;;10.93;2.72;;;18.50;19.00;;;;;;7406331;19;20289;-75
2024/01/21 12:04:38;;;;;;;8.90;3.03;;;16.50;22.40;;;;;;7402373;19;19922;-75
2024/01/21 12:07:04;;;;;;;11.32;3.65;;;17.30;19.90;;;;;;7404581;19;19949;-75
2024/01/21 12:09:31;;;;;;;10.85;2.33;;;17.60;20.10;;;;;;7404561;19;19922;-75
2024/01/21 12:11:58;;;;;;;7.35;2.63;;;18.20;17.80;;;;;;7405728;19;19923;-75
2024/01/21 12:14:26;;;;;;;11.68;3.10;;;18.90;17.40;;;;;;7402058;19;19922;-75
2024/01/21 12:16:54;;;;;;;9.98;2.85;;;18.20;16.80;;;;;;7407748;19;20007;-75
2024/01/21 12:19:21;;;;;;;12.98;2.78;;;17.70;17.80;;;;;;7406775;19;19919;-75
2024/01/21 12:21:47;;;;;;;10.63;3.28;;;19.00;15.80;;;;;;7407418;19;20390;-77
2024/01/21 12:24:14;;;;;;;;;;;19.20;14.80;;;;;;7405403;19;19974;-76
2024/01/21 12:26:43;;;;;;;8.40;2.28;;;19.60;13.80;;;;;;7405339;19;19922;-75
2024/01/21 12:29:10;;;;;;;10.85;2.70;;;20.00;12.80;;;;;;7405951;19;19938;-76
2024/01/21 12:31:39;;;;;;;;;;;20.30;11.60;;;;;;7409235;19;19970;-75
2024/01/21 12:34:07;;;;;;;8.73;2.85;;;20.70;10.30;;;;;;7404535;19;19934;-77
2024/01/21 12:36:45;;;;;;;10.27;2.85;;;20.60;10.70;;;;;;7404719;19;19914;-75
2024/01/21 12:39:12;;;;;;;11.05;3.10;;;20.20;10.60;;;;;;7402893;19;19936;-76
2024/01/21 12:41:38;;;;;;;10.45;2.90;;;18.10;14.00;;;;;;7406097;19;20272;-76
2024/01/21 12:44:05;;;;;;;;;;;18.60;14.40;;;;;;7406196;19;20023;-75
2024/01/21 12:46:32;;;;;;;8.27;2.95;;;19.80;12.50;;;;;;7407015;19;20029;-75
2024/01/21 12:48:58;;;;;;;8.50;2.58;;;20.50;9.60;;;;;;7385487;19;19930;-75